sensor_id;sensor_type;location;lat;lon;timestamp;temperature;humidity
11908;DHT22;6014;47.690;9.130;2022-08-19T00:00:27;18.20;99.90
11908;DHT22;6014;47.690;9.130;2022-08-19T00:02:56;18.20;99.90
11908;DHT22;6014;47.690;9.130;2022-08-19T00:05:24;18.30;99.90
11908;DHT22;6014;47.690;9.130;2022-08-19T00:07:52;18.30;99.90
11908;DHT22;6014;47.690;9.130;2022-08-19T00:10:22;18.50;99.90
11908;DHT22;6014;47.690;9.130;2022-08-19T00:12:52;18.50;99.90
11908;DHT22;6014;47.690;9.130;2022-08-19T00:15:21;18.40;99.90
11908;DHT22;6014;47.690;9.130;2022-08-19T00:17:50;18.40;99.90
11908;DHT22;6014;47.690;9.130;2022-08-19T00:20:21;18.30;99.90
11908;DHT22;6014;47.690;9.130;2022-08-19T00:22:51;18.40;99.90
11908;DHT22;6014;47.690;9.130;2022-08-19T00:25:22;18.30;99.90
11908;DHT22;6014;47.690;9.130;2022-08-19T00:27:56;18.30;99.90
11908;DHT22;6014;47.690;9.130;2022-08-19T00:30:25;18.40;99.90
11908;DHT22;6014;47.690;9.130;2022-08-19T00:32:54;18.30;99.90
11908;DHT22;6014;47.690;9.130;2022-08-19T00:35:24;18.30;99.90
11908;DHT22;6014;47.690;9.130;2022-08-19T00:37:54;18.30;99.90
11908;DHT22;6014;47.690;9.130;2022-08-19T00:40:24;18.30;99.90
11908;DHT22;6014;47.690;9.130;2022-08-19T00:42:54;18.20;99.90
11908;DHT22;6014;47.690;9.130;2022-08-19T00:45:24;18.10;99.90
11908;DHT22;6014;47.690;9.130;2022-08-19T00:47:52;18.00;99.90
11908;DHT22;6014;47.690;9.130;2022-08-19T00:50:21;18.00;99.90
11908;DHT22;6014;47.690;9.130;2022-08-19T00:52:50;18.00;99.90
11908;DHT22;6014;47.690;9.130;2022-08-19T00:55:25;17.90;99.90
11908;DHT22;6014;47.690;9.130;2022-08-19T00:57:58;18.00;99.90
11908;DHT22;6014;47.690;9.130;2022-08-19T01:00:28;18.00;99.90
11908;DHT22;6014;47.690;9.130;2022-08-19T01:02:56;18.00;99.90
11908;DHT22;6014;47.690;9.130;2022-08-19T01:05:27;18.20;99.90
11908;DHT22;6014;47.690;9.130;2022-08-19T01:07:58;18.30;99.90
11908;DHT22;6014;47.690;9.130;2022-08-19T01:10:31;18.30;99.90
11908;DHT22;6014;47.690;9.130;2022-08-19T01:13:04;18.20;99.90
11908;DHT22;6014;47.690;9.130;2022-08-19T01:15:34;18.20;99.90
11908;DHT22;6014;47.690;9.130;2022-08-19T01:18:06;18.20;99.90
11908;DHT22;6014;47.690;9.130;2022-08-19T01:20:35;18.30;99.90
11908;DHT22;6014;47.690;9.130;2022-08-19T01:23:07;18.30;99.90
11908;DHT22;6014;47.690;9.130;2022-08-19T01:25:41;18.30;99.90
11908;DHT22;6014;47.690;9.130;2022-08-19T01:28:16;18.30;99.90
11908;DHT22;6014;47.690;9.130;2022-08-19T01:30:59;18.40;99.90
11908;DHT22;6014;47.690;9.130;2022-08-19T01:33:34;18.30;99.90
11908;DHT22;6014;47.690;9.130;2022-08-19T01:36:07;18.30;99.90
11908;DHT22;6014;47.690;9.130;2022-08-19T01:38:39;18.40;99.90
11908;DHT22;6014;47.690;9.130;2022-08-19T01:41:11;18.20;99.90
11908;DHT22;6014;47.690;9.130;2022-08-19T01:43:40;18.20;99.90
11908;DHT22;6014;47.690;9.130;2022-08-19T01:46:28;18.00;99.90
11908;DHT22;6014;47.690;9.130;2022-08-19T01:48:57;17.90;99.90
11908;DHT22;6014;47.690;9.130;2022-08-19T01:51:26;18.00;99.90
11908;DHT22;6014;47.690;9.130;2022-08-19T01:53:56;18.00;99.90
11908;DHT22;6014;47.690;9.130;2022-08-19T01:56:24;17.90;99.90
11908;DHT22;6014;47.690;9.130;2022-08-19T01:58:54;17.80;99.90
11908;DHT22;6014;47.690;9.130;2022-08-19T02:01:23;17.90;99.90
11908;DHT22;6014;47.690;9.130;2022-08-19T02:03:57;17.90;99.90
11908;DHT22;6014;47.690;9.130;2022-08-19T02:06:28;18.10;99.90
11908;DHT22;6014;47.690;9.130;2022-08-19T02:08:58;18.10;99.90
11908;DHT22;6014;47.690;9.130;2022-08-19T02:11:28;18.30;99.90
11908;DHT22;6014;47.690;9.130;2022-08-19T02:13:59;18.10;99.90
11908;DHT22;6014;47.690;9.130;2022-08-19T02:16:28;18.10;99.90
11908;DHT22;6014;47.690;9.130;2022-08-19T02:18:57;18.10;99.90
11908;DHT22;6014;47.690;9.130;2022-08-19T02:21:28;18.20;99.90
11908;DHT22;6014;47.690;9.130;2022-08-19T02:24:00;18.30;99.90
11908;DHT22;6014;47.690;9.130;2022-08-19T02:26:29;18.30;99.90
11908;DHT22;6014;47.690;9.130;2022-08-19T02:28:57;18.30;99.90
11908;DHT22;6014;47.690;9.130;2022-08-19T02:31:27;18.30;99.90
11908;DHT22;6014;47.690;9.130;2022-08-19T02:33:56;18.30;99.90
11908;DHT22;6014;47.690;9.130;2022-08-19T02:36:25;18.40;99.90
11908;DHT22;6014;47.690;9.130;2022-08-19T02:38:56;18.50;99.90
11908;DHT22;6014;47.690;9.130;2022-08-19T02:41:27;18.40;99.90
11908;DHT22;6014;47.690;9.130;2022-08-19T02:43:57;18.30;99.90
11908;DHT22;6014;47.690;9.130;2022-08-19T02:46:48;18.30;99.90
11908;DHT22;6014;47.690;9.130;2022-08-19T02:49:19;18.20;99.90
11908;DHT22;6014;47.690;9.130;2022-08-19T02:51:47;18.10;99.90
11908;DHT22;6014;47.690;9.130;2022-08-19T02:54:15;18.10;99.90
11908;DHT22;6014;47.690;9.130;2022-08-19T02:56:45;18.10;99.90
11908;DHT22;6014;47.690;9.130;2022-08-19T02:59:13;18.20;99.90
11908;DHT22;6014;47.690;9.130;2022-08-19T03:01:42;18.20;99.90
11908;DHT22;6014;47.690;9.130;2022-08-19T03:04:13;18.20;99.90
11908;DHT22;6014;47.690;9.130;2022-08-19T03:06:43;18.20;99.90
11908;DHT22;6014;47.690;9.130;2022-08-19T03:09:12;18.10;99.90
11908;DHT22;6014;47.690;9.130;2022-08-19T03:11:41;18.20;99.90
11908;DHT22;6014;47.690;9.130;2022-08-19T03:14:11;18.20;99.90
11908;DHT22;6014;47.690;9.130;2022-08-19T03:16:42;18.20;99.90
11908;DHT22;6014;47.690;9.130;2022-08-19T03:19:11;18.20;99.90
11908;DHT22;6014;47.690;9.130;2022-08-19T03:21:40;18.10;99.90
11908;DHT22;6014;47.690;9.130;2022-08-19T03:24:08;18.20;99.90
11908;DHT22;6014;47.690;9.130;2022-08-19T03:26:39;18.20;99.90
11908;DHT22;6014;47.690;9.130;2022-08-19T03:29:12;18.20;99.90
11908;DHT22;6014;47.690;9.130;2022-08-19T03:31:51;18.30;99.90
11908;DHT22;6014;47.690;9.130;2022-08-19T03:34:21;18.20;99.90
11908;DHT22;6014;47.690;9.130;2022-08-19T03:36:53;18.30;99.90
11908;DHT22;6014;47.690;9.130;2022-08-19T03:39:23;18.30;99.90
11908;DHT22;6014;47.690;9.130;2022-08-19T03:41:53;18.30;99.90
11908;DHT22;6014;47.690;9.130;2022-08-19T03:44:47;18.30;99.90
11908;DHT22;6014;47.690;9.130;2022-08-19T03:47:15;18.30;99.90
11908;DHT22;6014;47.690;9.130;2022-08-19T03:49:44;18.30;99.90
11908;DHT22;6014;47.690;9.130;2022-08-19T03:52:13;18.20;99.90
11908;DHT22;6014;47.690;9.130;2022-08-19T03:54:42;18.30;99.90
11908;DHT22;6014;47.690;9.130;2022-08-19T03:57:10;18.30;99.90
11908;DHT22;6014;47.690;9.130;2022-08-19T03:59:39;18.30;99.90
11908;DHT22;6014;47.690;9.130;2022-08-19T04:02:11;18.20;99.90
11908;DHT22;6014;47.690;9.130;2022-08-19T04:04:41;18.20;99.90
11908;DHT22;6014;47.690;9.130;2022-08-19T04:07:15;18.10;99.90
11908;DHT22;6014;47.690;9.130;2022-08-19T04:09:48;18.10;99.90
11908;DHT22;6014;47.690;9.130;2022-08-19T04:12:18;18.10;99.90
11908;DHT22;6014;47.690;9.130;2022-08-19T04:14:47;18.10;99.90
11908;DHT22;6014;47.690;9.130;2022-08-19T04:17:17;18.10;99.90
11908;DHT22;6014;47.690;9.130;2022-08-19T04:19:46;18.00;99.90
11908;DHT22;6014;47.690;9.130;2022-08-19T04:22:14;18.10;99.90
11908;DHT22;6014;47.690;9.130;2022-08-19T04:24:43;18.00;99.90
11908;DHT22;6014;47.690;9.130;2022-08-19T04:27:11;18.00;99.90
11908;DHT22;6014;47.690;9.130;2022-08-19T04:29:40;18.00;99.90
11908;DHT22;6014;47.690;9.130;2022-08-19T04:32:10;18.00;99.90
11908;DHT22;6014;47.690;9.130;2022-08-19T04:34:43;18.00;99.90
11908;DHT22;6014;47.690;9.130;2022-08-19T04:37:32;18.00;99.90
11908;DHT22;6014;47.690;9.130;2022-08-19T04:40:04;17.90;99.90
11908;DHT22;6014;47.690;9.130;2022-08-19T04:42:49;18.00;99.90
11908;DHT22;6014;47.690;9.130;2022-08-19T04:45:18;18.00;99.90
11908;DHT22;6014;47.690;9.130;2022-08-19T04:47:49;18.00;99.90
11908;DHT22;6014;47.690;9.130;2022-08-19T04:50:42;18.00;99.90
11908;DHT22;6014;47.690;9.130;2022-08-19T04:53:10;18.00;99.90
11908;DHT22;6014;47.690;9.130;2022-08-19T04:55:41;17.90;99.90
11908;DHT22;6014;47.690;9.130;2022-08-19T04:58:09;17.90;99.90
11908;DHT22;6014;47.690;9.130;2022-08-19T05:00:38;17.90;99.90
11908;DHT22;6014;47.690;9.130;2022-08-19T05:03:07;17.90;99.90
11908;DHT22;6014;47.690;9.130;2022-08-19T05:05:39;17.90;99.90
11908;DHT22;6014;47.690;9.130;2022-08-19T05:08:12;17.90;99.90
11908;DHT22;6014;47.690;9.130;2022-08-19T05:10:56;17.90;99.90
11908;DHT22;6014;47.690;9.130;2022-08-19T05:13:25;17.80;99.90
11908;DHT22;6014;47.690;9.130;2022-08-19T05:15:54;17.90;99.90
11908;DHT22;6014;47.690;9.130;2022-08-19T05:18:23;17.90;99.90
11908;DHT22;6014;47.690;9.130;2022-08-19T05:21:11;17.90;99.90
11908;DHT22;6014;47.690;9.130;2022-08-19T05:23:58;17.80;99.90
11908;DHT22;6014;47.690;9.130;2022-08-19T05:26:26;17.90;99.90
11908;DHT22;6014;47.690;9.130;2022-08-19T05:28:55;17.80;99.90
11908;DHT22;6014;47.690;9.130;2022-08-19T05:31:23;17.80;99.90
11908;DHT22;6014;47.690;9.130;2022-08-19T05:33:51;17.80;99.90
11908;DHT22;6014;47.690;9.130;2022-08-19T05:36:20;17.90;99.90
11908;DHT22;6014;47.690;9.130;2022-08-19T05:38:48;17.90;99.90
11908;DHT22;6014;47.690;9.130;2022-08-19T05:41:18;17.90;99.90
11908;DHT22;6014;47.690;9.130;2022-08-19T05:43:47;17.90;99.90
11908;DHT22;6014;47.690;9.130;2022-08-19T05:46:18;18.00;99.90
11908;DHT22;6014;47.690;9.130;2022-08-19T05:48:54;18.00;99.90
11908;DHT22;6014;47.690;9.130;2022-08-19T05:51:23;18.00;99.90
11908;DHT22;6014;47.690;9.130;2022-08-19T05:53:55;18.00;99.90
11908;DHT22;6014;47.690;9.130;2022-08-19T05:56:25;17.90;99.90
11908;DHT22;6014;47.690;9.130;2022-08-19T05:58:53;17.90;99.90
11908;DHT22;6014;47.690;9.130;2022-08-19T06:01:25;17.90;99.90
11908;DHT22;6014;47.690;9.130;2022-08-19T06:03:54;17.90;99.90
11908;DHT22;6014;47.690;9.130;2022-08-19T06:06:22;17.90;99.90
11908;DHT22;6014;47.690;9.130;2022-08-19T06:08:50;17.90;99.90
11908;DHT22;6014;47.690;9.130;2022-08-19T06:11:22;17.90;99.90
11908;DHT22;6014;47.690;9.130;2022-08-19T06:13:53;17.90;99.90
11908;DHT22;6014;47.690;9.130;2022-08-19T06:16:26;17.90;99.90
11908;DHT22;6014;47.690;9.130;2022-08-19T06:18:56;17.90;99.90
11908;DHT22;6014;47.690;9.130;2022-08-19T06:21:27;18.00;99.90
11908;DHT22;6014;47.690;9.130;2022-08-19T06:23:56;18.00;99.90
11908;DHT22;6014;47.690;9.130;2022-08-19T06:26:25;18.10;99.90
11908;DHT22;6014;47.690;9.130;2022-08-19T06:28:55;18.00;99.90
11908;DHT22;6014;47.690;9.130;2022-08-19T06:31:25;18.10;99.90
11908;DHT22;6014;47.690;9.130;2022-08-19T06:33:54;18.10;99.90
11908;DHT22;6014;47.690;9.130;2022-08-19T06:36:25;18.10;99.90
11908;DHT22;6014;47.690;9.130;2022-08-19T06:38:59;18.10;99.90
11908;DHT22;6014;47.690;9.130;2022-08-19T06:41:28;18.00;99.90
11908;DHT22;6014;47.690;9.130;2022-08-19T06:43:58;18.10;99.90
11908;DHT22;6014;47.690;9.130;2022-08-19T06:46:27;18.10;99.90
11908;DHT22;6014;47.690;9.130;2022-08-19T06:48:59;18.00;99.90
11908;DHT22;6014;47.690;9.130;2022-08-19T06:51:28;18.00;99.90
11908;DHT22;6014;47.690;9.130;2022-08-19T06:53:58;18.00;99.90
11908;DHT22;6014;47.690;9.130;2022-08-19T06:56:28;18.00;99.90
11908;DHT22;6014;47.690;9.130;2022-08-19T06:59:02;18.10;99.90
11908;DHT22;6014;47.690;9.130;2022-08-19T07:01:35;18.10;99.90
11908;DHT22;6014;47.690;9.130;2022-08-19T07:04:05;18.10;99.90
11908;DHT22;6014;47.690;9.130;2022-08-19T07:06:37;18.10;99.90
11908;DHT22;6014;47.690;9.130;2022-08-19T07:09:13;18.10;99.90
11908;DHT22;6014;47.690;9.130;2022-08-19T07:11:45;18.10;99.90
11908;DHT22;6014;47.690;9.130;2022-08-19T07:14:15;18.10;99.90
11908;DHT22;6014;47.690;9.130;2022-08-19T07:16:47;18.10;99.90
11908;DHT22;6014;47.690;9.130;2022-08-19T07:19:16;18.10;99.90
11908;DHT22;6014;47.690;9.130;2022-08-19T07:21:45;18.10;99.90
11908;DHT22;6014;47.690;9.130;2022-08-19T07:24:15;18.20;99.90
11908;DHT22;6014;47.690;9.130;2022-08-19T07:26:44;18.10;99.90
11908;DHT22;6014;47.690;9.130;2022-08-19T07:29:19;18.10;99.90
11908;DHT22;6014;47.690;9.130;2022-08-19T07:31:55;18.10;99.90
11908;DHT22;6014;47.690;9.130;2022-08-19T07:34:28;18.10;99.90
11908;DHT22;6014;47.690;9.130;2022-08-19T07:36:56;18.10;99.90
11908;DHT22;6014;47.690;9.130;2022-08-19T07:39:27;18.10;99.90
11908;DHT22;6014;47.690;9.130;2022-08-19T07:41:58;18.10;99.90
11908;DHT22;6014;47.690;9.130;2022-08-19T07:44:28;18.10;99.90
11908;DHT22;6014;47.690;9.130;2022-08-19T07:46:57;18.10;99.90
11908;DHT22;6014;47.690;9.130;2022-08-19T07:49:27;18.10;99.90
11908;DHT22;6014;47.690;9.130;2022-08-19T07:51:58;18.10;99.90
11908;DHT22;6014;47.690;9.130;2022-08-19T07:54:31;18.10;99.90
11908;DHT22;6014;47.690;9.130;2022-08-19T07:57:02;18.10;99.90
11908;DHT22;6014;47.690;9.130;2022-08-19T07:59:32;18.10;99.90
11908;DHT22;6014;47.690;9.130;2022-08-19T08:02:01;18.10;99.90
11908;DHT22;6014;47.690;9.130;2022-08-19T08:10:04;18.10;99.90
11908;DHT22;6014;47.690;9.130;2022-08-19T08:12:45;18.10;99.90
11908;DHT22;6014;47.690;9.130;2022-08-19T08:18:09;18.20;99.90
11908;DHT22;6014;47.690;9.130;2022-08-19T08:28:19;18.30;99.90
11908;DHT22;6014;47.690;9.130;2022-08-19T14:15:43;18.30;99.90
11908;DHT22;6014;47.690;9.130;2022-08-19T14:45:49;18.40;99.90
11908;DHT22;6014;47.690;9.130;2022-08-19T14:48:19;18.50;99.90
11908;DHT22;6014;47.690;9.130;2022-08-19T14:50:54;18.50;99.90
11908;DHT22;6014;47.690;9.130;2022-08-19T14:53:23;18.50;99.90
11908;DHT22;6014;47.690;9.130;2022-08-19T14:55:52;18.50;99.90
11908;DHT22;6014;47.690;9.130;2022-08-19T14:58:21;18.40;99.90
11908;DHT22;6014;47.690;9.130;2022-08-19T15:00:57;18.50;99.90
11908;DHT22;6014;47.690;9.130;2022-08-19T15:03:28;18.50;99.90
11908;DHT22;6014;47.690;9.130;2022-08-19T15:05:59;18.50;99.90
11908;DHT22;6014;47.690;9.130;2022-08-19T15:08:30;18.50;99.90
11908;DHT22;6014;47.690;9.130;2022-08-19T15:10:59;18.50;99.90
11908;DHT22;6014;47.690;9.130;2022-08-19T15:13:28;18.60;99.90
11908;DHT22;6014;47.690;9.130;2022-08-19T15:15:59;18.50;99.90
11908;DHT22;6014;47.690;9.130;2022-08-19T15:18:29;18.40;99.90
11908;DHT22;6014;47.690;9.130;2022-08-19T15:20:57;18.40;99.90
11908;DHT22;6014;47.690;9.130;2022-08-19T15:23:26;18.40;99.90
11908;DHT22;6014;47.690;9.130;2022-08-19T15:25:54;18.30;99.90
11908;DHT22;6014;47.690;9.130;2022-08-19T15:28:24;18.30;99.90
11908;DHT22;6014;47.690;9.130;2022-08-19T15:30:53;18.30;99.90
11908;DHT22;6014;47.690;9.130;2022-08-19T15:33:22;18.40;99.90
11908;DHT22;6014;47.690;9.130;2022-08-19T15:35:52;18.30;99.90
11908;DHT22;6014;47.690;9.130;2022-08-19T15:38:20;18.40;99.90
11908;DHT22;6014;47.690;9.130;2022-08-19T15:40:52;18.40;99.90
11908;DHT22;6014;47.690;9.130;2022-08-19T15:43:41;18.50;99.90
11908;DHT22;6014;47.690;9.130;2022-08-19T15:46:10;18.60;99.90
11908;DHT22;6014;47.690;9.130;2022-08-19T15:48:43;18.70;99.90
11908;DHT22;6014;47.690;9.130;2022-08-19T15:51:25;18.80;99.90
11908;DHT22;6014;47.690;9.130;2022-08-19T15:53:55;18.80;99.90
11908;DHT22;6014;47.690;9.130;2022-08-19T15:56:23;18.80;99.90
11908;DHT22;6014;47.690;9.130;2022-08-19T15:58:53;18.80;99.90
11908;DHT22;6014;47.690;9.130;2022-08-19T16:01:44;18.80;99.90
11908;DHT22;6014;47.690;9.130;2022-08-19T16:04:36;18.90;99.90
11908;DHT22;6014;47.690;9.130;2022-08-19T16:07:26;18.90;99.90
11908;DHT22;6014;47.690;9.130;2022-08-19T16:09:54;19.00;99.90
11908;DHT22;6014;47.690;9.130;2022-08-19T16:12:23;18.90;99.90
11908;DHT22;6014;47.690;9.130;2022-08-19T16:14:55;18.80;99.90
11908;DHT22;6014;47.690;9.130;2022-08-19T16:17:26;18.90;99.90
11908;DHT22;6014;47.690;9.130;2022-08-19T16:19:54;18.90;99.90
11908;DHT22;6014;47.690;9.130;2022-08-19T16:22:29;18.90;99.90
11908;DHT22;6014;47.690;9.130;2022-08-19T16:24:58;18.90;99.90
11908;DHT22;6014;47.690;9.130;2022-08-19T16:27:26;18.90;99.90
11908;DHT22;6014;47.690;9.130;2022-08-19T16:29:55;18.90;99.90
11908;DHT22;6014;47.690;9.130;2022-08-19T16:32:23;18.90;99.90
11908;DHT22;6014;47.690;9.130;2022-08-19T16:34:52;18.80;99.90
11908;DHT22;6014;47.690;9.130;2022-08-19T16:37:21;18.80;99.90
11908;DHT22;6014;47.690;9.130;2022-08-19T16:39:51;18.80;99.90
11908;DHT22;6014;47.690;9.130;2022-08-19T16:42:20;18.70;99.90
11908;DHT22;6014;47.690;9.130;2022-08-19T16:44:49;18.70;99.90
11908;DHT22;6014;47.690;9.130;2022-08-19T16:47:18;18.60;99.90
11908;DHT22;6014;47.690;9.130;2022-08-19T16:49:46;18.70;99.90
11908;DHT22;6014;47.690;9.130;2022-08-19T16:52:21;18.70;99.90
11908;DHT22;6014;47.690;9.130;2022-08-19T16:54:52;18.70;99.90
11908;DHT22;6014;47.690;9.130;2022-08-19T16:57:21;18.70;99.90
11908;DHT22;6014;47.690;9.130;2022-08-19T16:59:50;18.70;99.90
11908;DHT22;6014;47.690;9.130;2022-08-19T17:02:20;18.70;99.90
11908;DHT22;6014;47.690;9.130;2022-08-19T17:04:51;18.70;99.90
11908;DHT22;6014;47.690;9.130;2022-08-19T17:07:24;18.70;99.90
11908;DHT22;6014;47.690;9.130;2022-08-19T17:09:54;18.60;99.90
11908;DHT22;6014;47.690;9.130;2022-08-19T17:12:23;18.60;99.90
11908;DHT22;6014;47.690;9.130;2022-08-19T17:14:59;18.60;99.90
11908;DHT22;6014;47.690;9.130;2022-08-19T17:17:28;18.60;99.90
11908;DHT22;6014;47.690;9.130;2022-08-19T17:19:56;18.50;99.90
11908;DHT22;6014;47.690;9.130;2022-08-19T17:22:25;18.50;99.90
11908;DHT22;6014;47.690;9.130;2022-08-19T17:24:55;18.50;99.90
11908;DHT22;6014;47.690;9.130;2022-08-19T17:27:25;18.50;99.90
11908;DHT22;6014;47.690;9.130;2022-08-19T17:30:00;18.50;99.90
11908;DHT22;6014;47.690;9.130;2022-08-19T17:32:29;18.50;99.90
11908;DHT22;6014;47.690;9.130;2022-08-19T17:35:01;18.50;99.90
11908;DHT22;6014;47.690;9.130;2022-08-19T17:37:32;18.50;99.90
11908;DHT22;6014;47.690;9.130;2022-08-19T17:40:04;18.60;99.90
11908;DHT22;6014;47.690;9.130;2022-08-19T17:42:33;18.50;99.90
11908;DHT22;6014;47.690;9.130;2022-08-19T17:45:02;18.50;99.90
11908;DHT22;6014;47.690;9.130;2022-08-19T17:47:32;18.50;99.90
11908;DHT22;6014;47.690;9.130;2022-08-19T17:50:00;18.40;99.90
11908;DHT22;6014;47.690;9.130;2022-08-19T17:52:29;18.40;99.90
11908;DHT22;6014;47.690;9.130;2022-08-19T17:54:57;18.40;99.90
11908;DHT22;6014;47.690;9.130;2022-08-19T17:57:27;18.30;99.90
11908;DHT22;6014;47.690;9.130;2022-08-19T17:59:55;18.30;99.90
11908;DHT22;6014;47.690;9.130;2022-08-19T18:02:25;18.50;99.90
11908;DHT22;6014;47.690;9.130;2022-08-19T18:04:55;18.40;99.90
11908;DHT22;6014;47.690;9.130;2022-08-19T18:07:25;18.40;99.90
11908;DHT22;6014;47.690;9.130;2022-08-19T18:09:54;18.30;99.90
11908;DHT22;6014;47.690;9.130;2022-08-19T18:12:29;18.30;99.90
11908;DHT22;6014;47.690;9.130;2022-08-19T18:14:57;18.40;99.90
11908;DHT22;6014;47.690;9.130;2022-08-19T18:17:26;18.40;99.90
11908;DHT22;6014;47.690;9.130;2022-08-19T18:19:55;18.40;99.90
11908;DHT22;6014;47.690;9.130;2022-08-19T18:22:27;18.50;99.90
11908;DHT22;6014;47.690;9.130;2022-08-19T18:24:57;18.50;99.90
11908;DHT22;6014;47.690;9.130;2022-08-19T18:27:30;18.50;99.90
11908;DHT22;6014;47.690;9.130;2022-08-19T18:29:58;18.40;99.90
11908;DHT22;6014;47.690;9.130;2022-08-19T18:32:29;18.50;99.90
11908;DHT22;6014;47.690;9.130;2022-08-19T18:34:58;18.50;99.90
11908;DHT22;6014;47.690;9.130;2022-08-19T18:37:28;18.50;99.90
11908;DHT22;6014;47.690;9.130;2022-08-19T18:39:57;18.40;99.90
11908;DHT22;6014;47.690;9.130;2022-08-19T18:42:46;18.40;99.90
11908;DHT22;6014;47.690;9.130;2022-08-19T18:45:32;18.40;99.90
11908;DHT22;6014;47.690;9.130;2022-08-19T18:48:18;18.40;99.90
11908;DHT22;6014;47.690;9.130;2022-08-19T18:51:05;18.30;99.90
11908;DHT22;6014;47.690;9.130;2022-08-19T18:53:42;18.30;99.90
11908;DHT22;6014;47.690;9.130;2022-08-19T18:56:15;18.40;99.90
11908;DHT22;6014;47.690;9.130;2022-08-19T18:58:47;18.30;99.90
11908;DHT22;6014;47.690;9.130;2022-08-19T19:01:18;18.40;99.90
11908;DHT22;6014;47.690;9.130;2022-08-19T19:03:52;18.30;99.90
11908;DHT22;6014;47.690;9.130;2022-08-19T19:06:22;18.30;99.90
11908;DHT22;6014;47.690;9.130;2022-08-19T19:08:52;18.30;99.90
11908;DHT22;6014;47.690;9.130;2022-08-19T19:11:23;18.40;99.90
11908;DHT22;6014;47.690;9.130;2022-08-19T19:13:54;18.40;99.90
11908;DHT22;6014;47.690;9.130;2022-08-19T19:16:23;18.50;99.90
11908;DHT22;6014;47.690;9.130;2022-08-19T19:18:51;18.50;99.90
11908;DHT22;6014;47.690;9.130;2022-08-19T19:21:21;18.50;99.90
11908;DHT22;6014;47.690;9.130;2022-08-19T19:23:50;18.50;99.90
11908;DHT22;6014;47.690;9.130;2022-08-19T19:26:18;18.40;99.90
11908;DHT22;6014;47.690;9.130;2022-08-19T19:28:47;18.50;99.90
11908;DHT22;6014;47.690;9.130;2022-08-19T19:31:20;18.50;99.90
11908;DHT22;6014;47.690;9.130;2022-08-19T19:33:49;18.50;99.90
11908;DHT22;6014;47.690;9.130;2022-08-19T19:36:18;18.40;99.90
11908;DHT22;6014;47.690;9.130;2022-08-19T19:38:46;18.50;99.90
11908;DHT22;6014;47.690;9.130;2022-08-19T19:41:17;18.40;99.90
11908;DHT22;6014;47.690;9.130;2022-08-19T19:43:46;18.50;99.90
11908;DHT22;6014;47.690;9.130;2022-08-19T19:46:38;18.50;99.90
11908;DHT22;6014;47.690;9.130;2022-08-19T19:49:09;18.40;99.90
11908;DHT22;6014;47.690;9.130;2022-08-19T19:51:38;18.40;99.90
11908;DHT22;6014;47.690;9.130;2022-08-19T19:54:08;18.40;99.90
11908;DHT22;6014;47.690;9.130;2022-08-19T19:56:40;18.40;99.90
11908;DHT22;6014;47.690;9.130;2022-08-19T19:59:12;18.40;99.90
11908;DHT22;6014;47.690;9.130;2022-08-19T20:01:42;18.40;99.90
11908;DHT22;6014;47.690;9.130;2022-08-19T20:04:13;18.40;99.90
11908;DHT22;6014;47.690;9.130;2022-08-19T20:06:42;18.40;99.90
11908;DHT22;6014;47.690;9.130;2022-08-19T20:09:11;18.40;99.90
11908;DHT22;6014;47.690;9.130;2022-08-19T20:11:46;18.40;99.90
11908;DHT22;6014;47.690;9.130;2022-08-19T20:14:21;18.40;99.90
11908;DHT22;6014;47.690;9.130;2022-08-19T20:16:52;18.40;99.90
11908;DHT22;6014;47.690;9.130;2022-08-19T20:19:23;18.40;99.90
11908;DHT22;6014;47.690;9.130;2022-08-19T20:21:53;18.50;99.90
11908;DHT22;6014;47.690;9.130;2022-08-19T20:24:25;18.40;99.90
11908;DHT22;6014;47.690;9.130;2022-08-19T20:26:54;18.40;99.90
11908;DHT22;6014;47.690;9.130;2022-08-19T20:29:23;18.40;99.90
11908;DHT22;6014;47.690;9.130;2022-08-19T20:32:08;18.40;99.90
11908;DHT22;6014;47.690;9.130;2022-08-19T20:34:36;18.40;99.90
11908;DHT22;6014;47.690;9.130;2022-08-19T20:37:05;18.30;99.90
11908;DHT22;6014;47.690;9.130;2022-08-19T20:39:35;18.30;99.90
11908;DHT22;6014;47.690;9.130;2022-08-19T20:42:03;18.30;99.90
11908;DHT22;6014;47.690;9.130;2022-08-19T20:44:32;18.40;99.90
11908;DHT22;6014;47.690;9.130;2022-08-19T20:47:00;18.40;99.90
11908;DHT22;6014;47.690;9.130;2022-08-19T20:49:31;18.40;99.90
11908;DHT22;6014;47.690;9.130;2022-08-19T20:52:01;18.40;99.90
11908;DHT22;6014;47.690;9.130;2022-08-19T20:54:31;18.40;99.90
11908;DHT22;6014;47.690;9.130;2022-08-19T20:57:00;18.30;99.90
11908;DHT22;6014;47.690;9.130;2022-08-19T20:59:29;18.30;99.90
11908;DHT22;6014;47.690;9.130;2022-08-19T21:01:58;18.30;99.90
11908;DHT22;6014;47.690;9.130;2022-08-19T21:04:26;18.30;99.90
11908;DHT22;6014;47.690;9.130;2022-08-19T21:06:56;18.30;99.90
11908;DHT22;6014;47.690;9.130;2022-08-19T21:09:25;18.30;99.90
11908;DHT22;6014;47.690;9.130;2022-08-19T21:11:54;18.30;99.90
11908;DHT22;6014;47.690;9.130;2022-08-19T21:14:22;18.40;99.90
11908;DHT22;6014;47.690;9.130;2022-08-19T21:16:51;18.20;99.90
11908;DHT22;6014;47.690;9.130;2022-08-19T21:19:19;18.20;99.90
11908;DHT22;6014;47.690;9.130;2022-08-19T21:21:51;18.20;99.90
11908;DHT22;6014;47.690;9.130;2022-08-19T21:24:21;18.30;99.90
11908;DHT22;6014;47.690;9.130;2022-08-19T21:26:57;18.20;99.90
11908;DHT22;6014;47.690;9.130;2022-08-19T21:29:27;18.20;99.90
11908;DHT22;6014;47.690;9.130;2022-08-19T21:32:00;18.30;99.90
11908;DHT22;6014;47.690;9.130;2022-08-19T21:34:28;18.20;99.90
11908;DHT22;6014;47.690;9.130;2022-08-19T21:36:57;18.20;99.90
11908;DHT22;6014;47.690;9.130;2022-08-19T21:39:26;18.20;99.90
11908;DHT22;6014;47.690;9.130;2022-08-19T21:41:54;18.20;99.90
11908;DHT22;6014;47.690;9.130;2022-08-19T21:44:23;18.20;99.90
11908;DHT22;6014;47.690;9.130;2022-08-19T21:46:54;18.20;99.90
11908;DHT22;6014;47.690;9.130;2022-08-19T21:49:22;18.20;99.90
11908;DHT22;6014;47.690;9.130;2022-08-19T21:51:51;18.20;99.90
11908;DHT22;6014;47.690;9.130;2022-08-19T21:54:19;18.20;99.90
11908;DHT22;6014;47.690;9.130;2022-08-19T21:56:50;18.30;99.90
11908;DHT22;6014;47.690;9.130;2022-08-19T21:59:18;18.20;99.90
11908;DHT22;6014;47.690;9.130;2022-08-19T22:01:47;18.20;99.90
11908;DHT22;6014;47.690;9.130;2022-08-19T22:04:31;18.20;99.90
11908;DHT22;6014;47.690;9.130;2022-08-19T22:07:01;18.20;99.90
11908;DHT22;6014;47.690;9.130;2022-08-19T22:09:30;18.30;99.90
11908;DHT22;6014;47.690;9.130;2022-08-19T22:12:00;18.30;99.90
11908;DHT22;6014;47.690;9.130;2022-08-19T22:14:28;18.20;99.90
11908;DHT22;6014;47.690;9.130;2022-08-19T22:16:57;18.20;99.90
11908;DHT22;6014;47.690;9.130;2022-08-19T22:19:28;18.20;99.90
11908;DHT22;6014;47.690;9.130;2022-08-19T22:21:57;18.20;99.90
11908;DHT22;6014;47.690;9.130;2022-08-19T22:24:25;18.10;99.90
11908;DHT22;6014;47.690;9.130;2022-08-19T22:26:54;18.10;99.90
11908;DHT22;6014;47.690;9.130;2022-08-19T22:29:31;18.20;99.90
11908;DHT22;6014;47.690;9.130;2022-08-19T22:32:00;18.10;99.90
11908;DHT22;6014;47.690;9.130;2022-08-19T22:34:49;18.10;99.90
11908;DHT22;6014;47.690;9.130;2022-08-19T22:37:22;18.10;99.90